This is the latest recevied weather packets stored in our database for station/object OE3MHU-13. If no packets are shown the sender has not sent any weather packets the latest 10 day(s).
| Time | Temp. | Humidity | Pressure | Rain* | Wind** | Luminosity | Snow |
|---|---|---|---|---|---|---|---|
| 1787748092 | 31.11° C | 44% | 1019.1 hPa | 0 mm | - | - | - |
| 1787747785 | 31.67° C | 44% | 1019.2 hPa | 0 mm | - | - | - |
| 1787747479 | 31.67° C | 44% | 1019.1 hPa | 0 mm | - | - | - |
| 1787747173 | 31.67° C | 44% | 1019.1 hPa | 0 mm | - | - | - |
| 1787746867 | 31.67° C | 44% | 1019.2 hPa | 0 mm | - | - | - |
| 1787746562 | 31.11° C | 44% | 1019.2 hPa | 0 mm | - | - | - |
| 1787746255 | 30.56° C | 46% | 1019.2 hPa | 0 mm | - | - | - |
| 1787745949 | 30.56° C | 45% | 1019.2 hPa | 0 mm | - | - | - |
| 1787745644 | 30° C | 46% | 1019.2 hPa | 0 mm | - | - | - |
| 1787745338 | 31.11° C | 43% | 1019.3 hPa | 0 mm | - | - | - |
| 1787745030 | 30.56° C | 46% | 1019.2 hPa | 0 mm | - | - | - |
| 1787744725 | 30.56° C | 46% | 1019.4 hPa | 0 mm | - | - | - |
| 1787744423 | 30.56° C | 47% | 1019.3 hPa | 0 mm | - | - | - |
| 1787744114 | 30.56° C | 48% | 1019.5 hPa | 0 mm | - | - | - |
| 1787743808 | 30° C | 48% | 1019.5 hPa | 0 mm | - | - | - |
| 1787743501 | 30° C | 48% | 1019.5 hPa | 0 mm | - | - | - |
| 1787743195 | 29.44° C | 48% | 1019.5 hPa | 0 mm | - | - | - |
| 1787742890 | 29.44° C | 47% | 1019.6 hPa | 0 mm | - | - | - |
| 1787742585 | 29.44° C | 47% | 1019.7 hPa | 0 mm | - | - | - |
| 1787742288 | 28.89° C | 50% | 1019.8 hPa | 0 mm | - | - | - |
| 1787741986 | 28.33° C | 51% | 1019.8 hPa | 0 mm | - | - | - |
| 1787741685 | 28.33° C | 48% | 1019.9 hPa | 0 mm | - | - | - |
| 1787741383 | 28.89° C | 46% | 1020.1 hPa | 0 mm | - | - | - |
| 1787741084 | 28.89° C | 50% | 1020.1 hPa | 0 mm | - | - | - |
| 1787740783 | 28.89° C | 50% | 1020.2 hPa | 0 mm | - | - | - |
* Rain latest hour (hover to see other rain measurements)
** Current wind speed in m/s (hover to see current wind gust speed)